sensor_id;sensor_type;location;lat;lon;timestamp;P1;durP1;ratioP1;P2;durP2;ratioP2
37288;SDS011;23174;49.462;11.000;2022-09-23T00:00:05;6.32;;;5.53;;
37288;SDS011;23174;49.462;11.000;2022-09-23T00:02:06;5.20;;;4.80;;
37288;SDS011;23174;49.462;11.000;2022-09-23T00:04:08;5.55;;;5.00;;
37288;SDS011;23174;49.462;11.000;2022-09-23T00:06:12;5.15;;;4.65;;
37288;SDS011;23174;49.462;11.000;2022-09-23T00:08:14;8.05;;;5.10;;
37288;SDS011;23174;49.462;11.000;2022-09-23T00:10:15;5.00;;;4.60;;
37288;SDS011;23174;49.462;11.000;2022-09-23T00:12:15;5.50;;;4.80;;
37288;SDS011;23174;49.462;11.000;2022-09-23T00:14:17;5.57;;;5.00;;
37288;SDS011;23174;49.462;11.000;2022-09-23T00:16:19;5.05;;;4.47;;
37288;SDS011;23174;49.462;11.000;2022-09-23T00:18:21;5.55;;;5.05;;
37288;SDS011;23174;49.462;11.000;2022-09-23T00:20:22;6.32;;;5.32;;
37288;SDS011;23174;49.462;11.000;2022-09-23T00:22:23;7.40;;;5.35;;
37288;SDS011;23174;49.462;11.000;2022-09-23T00:24:23;5.85;;;4.65;;
37288;SDS011;23174;49.462;11.000;2022-09-23T00:26:24;5.97;;;4.85;;
37288;SDS011;23174;49.462;11.000;2022-09-23T00:28:25;5.60;;;5.03;;
37288;SDS011;23174;49.462;11.000;2022-09-23T00:30:25;5.45;;;4.95;;
37288;SDS011;23174;49.462;11.000;2022-09-23T00:32:26;7.05;;;4.75;;
37288;SDS011;23174;49.462;11.000;2022-09-23T00:34:27;6.13;;;4.40;;
37288;SDS011;23174;49.462;11.000;2022-09-23T00:36:28;5.40;;;4.90;;
37288;SDS011;23174;49.462;11.000;2022-09-23T00:38:31;8.13;;;4.55;;
37288;SDS011;23174;49.462;11.000;2022-09-23T00:40:32;5.15;;;4.70;;
37288;SDS011;23174;49.462;11.000;2022-09-23T00:42:33;7.20;;;5.03;;
37288;SDS011;23174;49.462;11.000;2022-09-23T00:44:40;6.70;;;4.93;;
37288;SDS011;23174;49.462;11.000;2022-09-23T00:48:44;7.55;;;4.55;;
37288;SDS011;23174;49.462;11.000;2022-09-23T00:50:47;7.00;;;4.68;;
37288;SDS011;23174;49.462;11.000;2022-09-23T00:52:53;5.38;;;4.30;;
37288;SDS011;23174;49.462;11.000;2022-09-23T00:54:56;5.18;;;4.43;;
37288;SDS011;23174;49.462;11.000;2022-09-23T00:56:58;4.55;;;4.15;;
37288;SDS011;23174;49.462;11.000;2022-09-23T00:59:00;5.05;;;4.55;;
37288;SDS011;23174;49.462;11.000;2022-09-23T01:01:02;5.80;;;4.07;;
37288;SDS011;23174;49.462;11.000;2022-09-23T01:03:04;4.70;;;4.30;;
37288;SDS011;23174;49.462;11.000;2022-09-23T01:05:06;5.28;;;4.32;;
37288;SDS011;23174;49.462;11.000;2022-09-23T01:07:07;4.53;;;4.15;;
37288;SDS011;23174;49.462;11.000;2022-09-23T01:09:07;5.75;;;3.80;;
37288;SDS011;23174;49.462;11.000;2022-09-23T01:11:21;4.85;;;4.38;;
37288;SDS011;23174;49.462;11.000;2022-09-23T01:13:31;4.63;;;3.90;;
37288;SDS011;23174;49.462;11.000;2022-09-23T01:18:07;6.03;;;4.30;;
37288;SDS011;23174;49.462;11.000;2022-09-23T01:27:49;4.25;;;3.83;;
37288;SDS011;23174;49.462;11.000;2022-09-23T01:29:55;7.43;;;4.40;;
37288;SDS011;23174;49.462;11.000;2022-09-23T01:37:10;4.53;;;3.60;;
37288;SDS011;23174;49.462;11.000;2022-09-23T01:39:22;4.40;;;4.00;;
37288;SDS011;23174;49.462;11.000;2022-09-23T01:45:57;5.70;;;4.18;;
37288;SDS011;23174;49.462;11.000;2022-09-23T01:48:00;4.60;;;4.20;;
37288;SDS011;23174;49.462;11.000;2022-09-23T01:50:16;6.05;;;4.20;;
37288;SDS011;23174;49.462;11.000;2022-09-23T01:52:39;3.95;;;3.55;;
37288;SDS011;23174;49.462;11.000;2022-09-23T01:57:21;4.22;;;3.83;;
37288;SDS011;23174;49.462;11.000;2022-09-23T01:59:39;4.20;;;3.80;;
37288;SDS011;23174;49.462;11.000;2022-09-23T02:01:53;4.45;;;4.05;;
37288;SDS011;23174;49.462;11.000;2022-09-23T02:04:03;4.07;;;3.67;;
37288;SDS011;23174;49.462;11.000;2022-09-23T02:08:50;5.18;;;4.30;;
37288;SDS011;23174;49.462;11.000;2022-09-23T02:10:56;6.47;;;3.90;;
37288;SDS011;23174;49.462;11.000;2022-09-23T02:13:05;4.30;;;4.00;;
37288;SDS011;23174;49.462;11.000;2022-09-23T02:15:15;6.45;;;4.32;;
37288;SDS011;23174;49.462;11.000;2022-09-23T02:19:27;4.20;;;3.80;;
37288;SDS011;23174;49.462;11.000;2022-09-23T02:21:33;4.65;;;4.25;;
37288;SDS011;23174;49.462;11.000;2022-09-23T02:23:40;7.00;;;4.13;;
37288;SDS011;23174;49.462;11.000;2022-09-23T02:30:19;4.63;;;4.22;;
37288;SDS011;23174;49.462;11.000;2022-09-23T02:39:29;3.85;;;3.55;;
37288;SDS011;23174;49.462;11.000;2022-09-23T02:42:00;5.63;;;3.33;;
37288;SDS011;23174;49.462;11.000;2022-09-23T02:44:07;4.38;;;3.97;;
37288;SDS011;23174;49.462;11.000;2022-09-23T02:46:11;4.60;;;4.20;;
37288;SDS011;23174;49.462;11.000;2022-09-23T02:48:13;4.22;;;3.83;;
37288;SDS011;23174;49.462;11.000;2022-09-23T02:50:18;4.50;;;4.10;;
37288;SDS011;23174;49.462;11.000;2022-09-23T02:52:21;4.35;;;3.95;;
37288;SDS011;23174;49.462;11.000;2022-09-23T02:54:24;5.20;;;3.72;;
37288;SDS011;23174;49.462;11.000;2022-09-23T02:56:27;4.82;;;4.32;;
37288;SDS011;23174;49.462;11.000;2022-09-23T02:58:27;3.92;;;3.63;;
37288;SDS011;23174;49.462;11.000;2022-09-23T03:00:34;4.93;;;3.85;;
37288;SDS011;23174;49.462;11.000;2022-09-23T03:03:09;8.25;;;3.38;;
37288;SDS011;23174;49.462;11.000;2022-09-23T03:05:24;4.32;;;3.80;;
37288;SDS011;23174;49.462;11.000;2022-09-23T03:07:34;4.15;;;3.70;;
37288;SDS011;23174;49.462;11.000;2022-09-23T03:11:47;5.10;;;3.97;;
37288;SDS011;23174;49.462;11.000;2022-09-23T03:14:14;4.07;;;3.78;;
37288;SDS011;23174;49.462;11.000;2022-09-23T03:16:31;5.10;;;4.32;;
37288;SDS011;23174;49.462;11.000;2022-09-23T03:19:09;5.55;;;4.90;;
37288;SDS011;23174;49.462;11.000;2022-09-23T03:21:33;5.75;;;5.13;;
37288;SDS011;23174;49.462;11.000;2022-09-23T03:23:54;5.80;;;5.20;;
37288;SDS011;23174;49.462;11.000;2022-09-23T03:25:59;6.25;;;5.15;;
37288;SDS011;23174;49.462;11.000;2022-09-23T03:28:05;7.32;;;5.15;;
37288;SDS011;23174;49.462;11.000;2022-09-23T03:30:07;6.13;;;5.28;;
37288;SDS011;23174;49.462;11.000;2022-09-23T03:32:10;6.72;;;4.75;;
37288;SDS011;23174;49.462;11.000;2022-09-23T03:34:14;4.68;;;4.25;;
37288;SDS011;23174;49.462;11.000;2022-09-23T03:36:21;4.13;;;3.72;;
37288;SDS011;23174;49.462;11.000;2022-09-23T03:38:45;5.78;;;3.92;;
37288;SDS011;23174;49.462;11.000;2022-09-23T03:40:50;6.03;;;4.28;;
37288;SDS011;23174;49.462;11.000;2022-09-23T03:42:54;4.95;;;3.97;;
37288;SDS011;23174;49.462;11.000;2022-09-23T03:44:56;5.00;;;4.25;;
37288;SDS011;23174;49.462;11.000;2022-09-23T03:46:58;3.83;;;3.53;;
37288;SDS011;23174;49.462;11.000;2022-09-23T03:49:05;5.68;;;4.25;;
37288;SDS011;23174;49.462;11.000;2022-09-23T03:51:19;5.05;;;3.78;;
37288;SDS011;23174;49.462;11.000;2022-09-23T03:53:21;4.22;;;3.83;;
37288;SDS011;23174;49.462;11.000;2022-09-23T03:55:22;5.70;;;3.83;;
37288;SDS011;23174;49.462;11.000;2022-09-23T03:57:22;3.92;;;3.63;;
37288;SDS011;23174;49.462;11.000;2022-09-23T03:59:23;4.78;;;4.30;;
37288;SDS011;23174;49.462;11.000;2022-09-23T04:01:24;4.55;;;3.92;;
37288;SDS011;23174;49.462;11.000;2022-09-23T04:03:25;4.55;;;2.70;;
37288;SDS011;23174;49.462;11.000;2022-09-23T04:05:27;3.55;;;3.15;;
37288;SDS011;23174;49.462;11.000;2022-09-23T04:07:27;3.92;;;2.95;;
37288;SDS011;23174;49.462;11.000;2022-09-23T04:09:28;3.65;;;2.97;;
37288;SDS011;23174;49.462;11.000;2022-09-23T04:11:29;5.40;;;3.60;;
37288;SDS011;23174;49.462;11.000;2022-09-23T04:13:30;6.07;;;3.17;;
37288;SDS011;23174;49.462;11.000;2022-09-23T04:15:31;3.50;;;3.17;;
37288;SDS011;23174;49.462;11.000;2022-09-23T04:17:32;6.07;;;3.15;;
37288;SDS011;23174;49.462;11.000;2022-09-23T04:19:33;3.28;;;2.97;;
37288;SDS011;23174;49.462;11.000;2022-09-23T04:21:33;4.63;;;3.65;;
37288;SDS011;23174;49.462;11.000;2022-09-23T04:23:34;4.88;;;2.97;;
37288;SDS011;23174;49.462;11.000;2022-09-23T04:25:35;6.82;;;3.38;;
37288;SDS011;23174;49.462;11.000;2022-09-23T04:27:35;4.20;;;3.50;;
37288;SDS011;23174;49.462;11.000;2022-09-23T04:29:36;5.40;;;3.38;;
37288;SDS011;23174;49.462;11.000;2022-09-23T04:31:36;3.55;;;3.25;;
37288;SDS011;23174;49.462;11.000;2022-09-23T04:33:37;5.25;;;2.97;;
37288;SDS011;23174;49.462;11.000;2022-09-23T04:35:38;3.25;;;3.03;;
37288;SDS011;23174;49.462;11.000;2022-09-23T04:39:50;3.22;;;2.92;;
37288;SDS011;23174;49.462;11.000;2022-09-23T04:41:50;3.75;;;2.92;;
37288;SDS011;23174;49.462;11.000;2022-09-23T04:43:51;3.50;;;2.70;;
37288;SDS011;23174;49.462;11.000;2022-09-23T04:45:58;2.63;;;2.40;;
37288;SDS011;23174;49.462;11.000;2022-09-23T04:48:00;3.65;;;3.35;;
37288;SDS011;23174;49.462;11.000;2022-09-23T04:50:07;3.42;;;2.55;;
37288;SDS011;23174;49.462;11.000;2022-09-23T04:52:08;4.97;;;2.45;;
37288;SDS011;23174;49.462;11.000;2022-09-23T04:54:09;3.60;;;2.85;;
37288;SDS011;23174;49.462;11.000;2022-09-23T04:56:12;2.13;;;1.95;;
37288;SDS011;23174;49.462;11.000;2022-09-23T04:58:17;4.57;;;3.63;;
37288;SDS011;23174;49.462;11.000;2022-09-23T05:00:17;3.10;;;2.50;;
37288;SDS011;23174;49.462;11.000;2022-09-23T05:02:18;4.38;;;2.80;;
37288;SDS011;23174;49.462;11.000;2022-09-23T05:04:18;6.68;;;2.75;;
37288;SDS011;23174;49.462;11.000;2022-09-23T05:06:19;2.45;;;2.05;;
37288;SDS011;23174;49.462;11.000;2022-09-23T05:08:20;3.95;;;3.08;;
37288;SDS011;23174;49.462;11.000;2022-09-23T05:10:21;2.30;;;1.73;;
37288;SDS011;23174;49.462;11.000;2022-09-23T05:12:21;5.00;;;3.20;;
37288;SDS011;23174;49.462;11.000;2022-09-23T05:14:22;2.33;;;2.15;;
37288;SDS011;23174;49.462;11.000;2022-09-23T05:16:23;4.10;;;3.60;;
37288;SDS011;23174;49.462;11.000;2022-09-23T05:18:24;8.65;;;3.72;;
37288;SDS011;23174;49.462;11.000;2022-09-23T05:20:25;6.10;;;3.35;;
37288;SDS011;23174;49.462;11.000;2022-09-23T05:22:25;4.32;;;3.15;;
37288;SDS011;23174;49.462;11.000;2022-09-23T05:24:28;3.00;;;2.80;;
37288;SDS011;23174;49.462;11.000;2022-09-23T05:26:29;2.83;;;2.38;;
37288;SDS011;23174;49.462;11.000;2022-09-23T05:28:31;5.88;;;3.20;;
37288;SDS011;23174;49.462;11.000;2022-09-23T05:30:32;4.97;;;3.00;;
37288;SDS011;23174;49.462;11.000;2022-09-23T05:32:33;3.72;;;3.03;;
37288;SDS011;23174;49.462;11.000;2022-09-23T05:34:33;6.00;;;3.08;;
37288;SDS011;23174;49.462;11.000;2022-09-23T05:36:35;2.90;;;2.70;;
37288;SDS011;23174;49.462;11.000;2022-09-23T05:38:36;5.07;;;3.10;;
37288;SDS011;23174;49.462;11.000;2022-09-23T05:40:36;4.57;;;2.90;;
37288;SDS011;23174;49.462;11.000;2022-09-23T05:42:37;3.53;;;2.30;;
37288;SDS011;23174;49.462;11.000;2022-09-23T05:44:37;1.73;;;1.63;;
37288;SDS011;23174;49.462;11.000;2022-09-23T05:46:38;1.58;;;1.25;;
37288;SDS011;23174;49.462;11.000;2022-09-23T05:48:39;3.22;;;1.17;;
37288;SDS011;23174;49.462;11.000;2022-09-23T05:50:50;1.63;;;1.52;;
37288;SDS011;23174;49.462;11.000;2022-09-23T05:52:51;4.75;;;1.33;;
37288;SDS011;23174;49.462;11.000;2022-09-23T05:54:52;1.45;;;0.85;;
37288;SDS011;23174;49.462;11.000;2022-09-23T05:56:52;2.97;;;1.75;;
37288;SDS011;23174;49.462;11.000;2022-09-23T05:58:53;0.55;;;0.55;;
37288;SDS011;23174;49.462;11.000;2022-09-23T06:00:56;1.42;;;1.10;;
37288;SDS011;23174;49.462;11.000;2022-09-23T06:02:57;1.73;;;1.55;;
37288;SDS011;23174;49.462;11.000;2022-09-23T06:04:57;2.08;;;1.25;;
37288;SDS011;23174;49.462;11.000;2022-09-23T06:06:58;1.77;;;1.67;;
37288;SDS011;23174;49.462;11.000;2022-09-23T06:08:58;1.35;;;1.25;;
37288;SDS011;23174;49.462;11.000;2022-09-23T06:11:03;1.30;;;1.13;;
37288;SDS011;23174;49.462;11.000;2022-09-23T06:13:08;3.90;;;0.57;;
37288;SDS011;23174;49.462;11.000;2022-09-23T06:15:09;1.20;;;1.02;;
37288;SDS011;23174;49.462;11.000;2022-09-23T06:17:11;2.70;;;1.63;;
37288;SDS011;23174;49.462;11.000;2022-09-23T06:19:11;2.92;;;1.20;;
37288;SDS011;23174;49.462;11.000;2022-09-23T06:21:13;2.05;;;1.48;;
37288;SDS011;23174;49.462;11.000;2022-09-23T06:23:14;1.17;;;0.95;;
37288;SDS011;23174;49.462;11.000;2022-09-23T06:25:15;1.77;;;1.17;;
37288;SDS011;23174;49.462;11.000;2022-09-23T06:27:18;2.45;;;1.98;;
37288;SDS011;23174;49.462;11.000;2022-09-23T06:29:19;1.98;;;1.45;;
37288;SDS011;23174;49.462;11.000;2022-09-23T06:31:19;1.33;;;1.10;;
37288;SDS011;23174;49.462;11.000;2022-09-23T06:33:20;0.60;;;0.60;;
37288;SDS011;23174;49.462;11.000;2022-09-23T06:35:21;1.17;;;1.05;;
37288;SDS011;23174;49.462;11.000;2022-09-23T06:37:24;1.55;;;0.73;;
37288;SDS011;23174;49.462;11.000;2022-09-23T06:39:24;0.65;;;0.65;;
37288;SDS011;23174;49.462;11.000;2022-09-23T06:41:25;1.65;;;0.88;;
37288;SDS011;23174;49.462;11.000;2022-09-23T06:43:26;3.72;;;1.30;;
37288;SDS011;23174;49.462;11.000;2022-09-23T06:45:27;2.97;;;2.65;;
37288;SDS011;23174;49.462;11.000;2022-09-23T06:47:28;1.98;;;1.75;;
37288;SDS011;23174;49.462;11.000;2022-09-23T06:49:28;2.58;;;2.38;;
37288;SDS011;23174;49.462;11.000;2022-09-23T06:51:30;1.50;;;1.40;;
37288;SDS011;23174;49.462;11.000;2022-09-23T06:53:31;2.20;;;2.00;;
37288;SDS011;23174;49.462;11.000;2022-09-23T06:55:32;2.15;;;1.23;;
37288;SDS011;23174;49.462;11.000;2022-09-23T06:57:32;1.65;;;1.23;;
37288;SDS011;23174;49.462;11.000;2022-09-23T06:59:42;3.08;;;2.10;;
37288;SDS011;23174;49.462;11.000;2022-09-23T07:01:43;1.38;;;1.27;;
37288;SDS011;23174;49.462;11.000;2022-09-23T07:03:46;1.13;;;0.65;;
